ラルナカ の空港の天気 - METARとTAF

ラルナカ国際空港 ( LCLK / LCA ) - キプロス ラルナカ
飛行場実況気象(Metar)
観測時間05/26 12:30 EEST (05/26 09:30 UTC)
風向・風速東南東 5m/s
視程10km以上
天気現象
少しの雲 雲底高度 760m
気温25℃
湿度61%
気圧1016hPa
METARLCLK 260930Z 12010KT 9999 FEW025 25/17 Q1016 NOSIG
過去の天気等 Google飛行場航空写真 Wunderground天気予報

過去48時間のMETAR

飛行場予報(TAF)
発表時間: 5/26 08:30 EEST (5/26 05:30 UTC)
予報対象時間: 26日9時 EEST ~ 27日9時 EEST
風向・風速北東 3m/s
視程10km以上
少しの雲 雲底高度 760m
26日9時 EEST ~ 26日13時 EEST に徐々に
風向・風速南東 5m/s
26日14時 EEST ~ 26日17時 EEST に徐々に
風向・風速南西 6m/s
26日19時 EEST ~ 26日22時 EEST に徐々に
風向・風速北西 3m/s
TAF LCLK 260530Z 2606/2706 04006KT 9999 FEW025
BECMG 2606/2610 14010KT
BECMG 2611/2614 22012
BECMG 2616/2619 32006KT